createdAt,value
2022-10-08T00:00:19.891Z,101438.91
2022-10-08T00:02:53.673Z,101430.13
2022-10-08T00:05:26.242Z,101432.78
2022-10-08T00:07:58.695Z,101428.34
2022-10-08T00:10:32.975Z,101423.94
2022-10-08T00:13:05.523Z,101416.84
2022-10-08T00:15:38.041Z,101423.78
2022-10-08T00:18:10.533Z,101417.53
2022-10-08T00:20:44.076Z,101426.25
2022-10-08T00:23:16.976Z,101420.00
2022-10-08T00:25:49.488Z,101422.59
2022-10-08T00:28:22.082Z,101420.72
2022-10-08T00:30:55.916Z,101424.22
2022-10-08T00:33:28.455Z,101426.78
2022-10-08T00:36:06.489Z,101424.91
2022-10-08T00:38:40.269Z,101422.22
2022-10-08T00:41:22.819Z,101429.22
2022-10-08T00:43:59.355Z,101414.16
2022-10-08T00:46:47.860Z,101419.41
2022-10-08T00:49:22.911Z,101425.53
2022-10-08T00:51:56.770Z,101430.78
2022-10-08T00:54:29.557Z,101427.19
2022-10-08T00:57:02.051Z,101423.63
2022-10-08T00:59:37.228Z,101428.88
2022-10-08T01:02:11.388Z,101432.41
2022-10-08T01:04:44.192Z,101434.09
2022-10-08T01:07:36.251Z,101438.50
2022-10-08T01:10:23.924Z,101435.91
2022-10-08T01:13:18.286Z,101443.03
2022-10-08T01:16:13.455Z,101457.16
2022-10-08T01:18:57.651Z,101472.34
2022-10-08T01:22:16.701Z,101462.81
2022-10-08T01:25:26.069Z,101463.03
2022-10-08T01:28:30.161Z,101451.56
2022-10-08T01:31:11.069Z,101455.13
2022-10-08T01:34:05.755Z,101455.13
2022-10-08T01:36:45.697Z,101455.09
2022-10-08T01:39:24.446Z,101443.63
2022-10-08T01:42:01.942Z,101454.28
2022-10-08T01:44:50.650Z,101452.56
2022-10-08T01:47:23.986Z,101456.16
2022-10-08T01:50:17.542Z,101465.09
2022-10-08T01:52:59.259Z,101458.00
2022-10-08T01:55:39.308Z,101459.84
2022-10-08T01:58:36.246Z,101466.06
2022-10-08T02:02:33.653Z,101480.28
2022-10-08T02:05:07.978Z,101471.63
2022-10-08T02:07:46.181Z,101476.06
2022-10-08T02:10:23.929Z,101473.50
2022-10-08T02:12:56.396Z,101476.22
2022-10-08T02:15:59.464Z,101473.75
2022-10-08T02:18:51.952Z,101466.75
2022-10-08T02:21:28.717Z,101465.88
2022-10-08T02:24:26.962Z,101467.75
2022-10-08T02:27:05.806Z,101464.22
2022-10-08T02:29:52.036Z,101465.19
2022-10-08T02:32:38.087Z,101479.41
2022-10-08T02:35:22.771Z,101481.25
2022-10-08T02:38:05.204Z,101483.91
2022-10-08T02:40:45.346Z,101473.38
2022-10-08T02:43:32.054Z,101469.81
2022-10-08T02:46:17.472Z,101468.09
2022-10-08T02:49:28.203Z,101470.81
2022-10-08T02:52:05.007Z,101464.69
2022-10-08T02:54:43.062Z,101469.94
2022-10-08T02:57:32.478Z,101465.56
2022-10-08T03:00:06.381Z,101464.66
2022-10-08T03:02:58.595Z,101462.09
2022-10-08T03:05:31.330Z,101459.47
2022-10-08T03:08:06.277Z,101463.00
2022-10-08T03:10:41.814Z,101465.66
2022-10-08T03:13:15.729Z,101465.69
2022-10-08T03:15:53.816Z,101471.88
2022-10-08T03:18:26.824Z,101471.00
2022-10-08T03:20:59.708Z,101475.38
2022-10-08T03:23:32.269Z,101474.50
2022-10-08T03:26:05.130Z,101473.63
2022-10-08T03:28:37.776Z,101482.44
2022-10-08T03:31:10.592Z,101488.59
2022-10-08T03:33:43.110Z,101489.47
2022-10-08T03:36:15.644Z,101493.00
2022-10-08T03:38:49.426Z,101497.41
2022-10-08T03:41:22.110Z,101506.25
2022-10-08T03:43:54.642Z,101509.81
2022-10-08T03:46:27.492Z,101504.53
2022-10-08T03:49:00.102Z,101505.47
2022-10-08T03:51:32.877Z,101497.56
2022-10-08T03:54:05.581Z,101516.16
2022-10-08T03:56:38.112Z,101514.47
2022-10-08T03:59:11.039Z,101511.84
2022-10-08T04:01:43.695Z,101510.16
2022-10-08T04:04:16.235Z,101511.97
2022-10-08T04:06:48.796Z,101507.59
2022-10-08T04:09:21.293Z,101512.03
2022-10-08T04:11:53.923Z,101520.88
2022-10-08T04:14:26.531Z,101522.66
2022-10-08T04:16:59.934Z,101524.41
2022-10-08T04:19:32.562Z,101532.31
2022-10-08T04:22:05.152Z,101520.81
2022-10-08T04:24:37.735Z,101522.50
2022-10-08T04:27:10.285Z,101525.13
2022-10-08T04:29:42.867Z,101524.22
2022-10-08T04:32:16.455Z,101528.56
2022-10-08T04:34:49.029Z,101525.88
2022-10-08T04:37:22.561Z,101540.84
2022-10-08T04:39:55.351Z,101534.63
2022-10-08T04:42:27.967Z,101542.53
2022-10-08T04:45:00.905Z,101542.47
2022-10-08T04:47:33.532Z,101547.75
2022-10-08T04:50:06.402Z,101544.19
2022-10-08T04:52:38.871Z,101555.59
2022-10-08T04:55:11.393Z,101556.47
2022-10-08T04:57:44.051Z,101567.88
2022-10-08T05:00:19.123Z,101561.72
2022-10-08T05:02:52.142Z,101566.09
2022-10-08T05:05:24.760Z,101572.22
2022-10-08T05:07:57.239Z,101578.38
2022-10-08T05:10:29.757Z,101575.72
2022-10-08T05:13:03.152Z,101574.84
2022-10-08T05:15:36.076Z,101580.13
2022-10-08T05:18:08.590Z,101582.78
2022-10-08T05:20:41.169Z,101582.78
2022-10-08T05:23:13.702Z,101585.47
2022-10-08T05:25:46.250Z,101588.13
2022-10-08T05:28:18.862Z,101579.28
2022-10-08T05:30:51.681Z,101581.06
2022-10-08T05:33:24.196Z,101588.13
2022-10-08T05:35:56.715Z,101586.38
2022-10-08T05:38:34.013Z,101584.63
2022-10-08T05:41:13.845Z,101603.19
2022-10-08T05:43:47.959Z,101608.50
2022-10-08T05:46:24.984Z,101608.50
2022-10-08T05:49:01.540Z,101604.97
2022-10-08T05:51:35.243Z,101608.44
2022-10-08T05:54:07.798Z,101614.63
2022-10-08T05:56:40.344Z,101616.41
2022-10-08T05:59:20.910Z,101626.06
2022-10-08T06:01:53.457Z,101638.44
2022-10-08T06:04:26.034Z,101637.63
2022-10-08T06:06:58.610Z,101634.13
2022-10-08T06:09:31.347Z,101639.44
2022-10-08T06:12:04.027Z,101644.78
2022-10-08T06:14:36.593Z,101650.09
2022-10-08T06:17:09.548Z,101643.94
2022-10-08T06:19:42.108Z,101650.13
2022-10-08T06:22:14.696Z,101658.97
2022-10-08T06:24:47.345Z,101667.78
2022-10-08T06:27:19.885Z,101676.63
2022-10-08T06:29:52.496Z,101669.56
2022-10-08T06:32:25.034Z,101667.78
2022-10-08T06:34:57.530Z,101667.81
2022-10-08T06:37:30.099Z,101679.31
2022-10-08T06:40:02.722Z,101681.94
2022-10-08T06:42:35.196Z,101694.31
2022-10-08T06:45:08.406Z,101689.00
2022-10-08T06:47:40.864Z,101696.94
2022-10-08T06:50:13.382Z,101699.59
2022-10-08T06:52:46.223Z,101705.72
2022-10-08T06:55:18.962Z,101708.31
2022-10-08T06:57:51.503Z,101713.59
2022-10-08T07:00:24.084Z,101723.28
2022-10-08T07:02:57.807Z,101726.78
2022-10-08T07:05:30.449Z,101732.03
2022-10-08T07:08:02.962Z,101745.25
2022-10-08T07:10:35.813Z,101754.97
2022-10-08T07:13:08.671Z,101754.97
2022-10-08T07:15:41.722Z,101751.41
2022-10-08T07:18:14.296Z,101764.63
2022-10-08T07:20:56.049Z,101768.16
2022-10-08T07:23:29.883Z,101763.72
2022-10-08T07:26:07.425Z,101772.53
2022-10-08T07:28:44.100Z,101779.56
2022-10-08T07:31:24.739Z,101779.53
2022-10-08T07:33:59.900Z,101781.31
2022-10-08T07:36:33.316Z,101781.28
2022-10-08T07:39:14.546Z,101790.16
2022-10-08T07:41:51.780Z,101793.63
2022-10-08T07:44:24.801Z,101791.81
2022-10-08T07:46:57.351Z,101797.09
2022-10-08T07:49:29.877Z,101796.13
2022-10-08T07:52:02.395Z,101804.03
2022-10-08T07:54:34.925Z,101802.22
2022-10-08T07:57:08.117Z,101807.50
2022-10-08T07:59:40.751Z,101808.31
2022-10-08T08:02:13.364Z,101807.34
2022-10-08T08:04:45.891Z,101811.72
2022-10-08T08:07:18.444Z,101811.63
2022-10-08T08:09:51.009Z,101820.50
2022-10-08T08:12:23.565Z,101825.75
2022-10-08T08:14:56.123Z,101823.06
2022-10-08T08:17:28.709Z,101821.25
2022-10-08T08:20:01.179Z,101830.09
2022-10-08T08:22:33.752Z,101837.91
2022-10-08T08:25:06.566Z,101842.28
2022-10-08T08:27:39.171Z,101844.91
2022-10-08T08:30:13.118Z,101843.00
2022-10-08T08:32:45.872Z,101850.91
2022-10-08T08:35:18.598Z,101859.81
2022-10-08T08:37:51.147Z,101873.94
2022-10-08T08:40:23.815Z,101869.53
2022-10-08T08:42:57.375Z,101870.34
2022-10-08T08:45:46.304Z,101869.34
2022-10-08T08:48:28.363Z,101872.84
2022-10-08T08:51:04.652Z,101879.88
2022-10-08T08:53:37.925Z,101882.38
2022-10-08T08:56:16.324Z,101883.22
2022-10-08T08:59:05.950Z,101880.50
2022-10-08T09:01:48.730Z,101892.84
2022-10-08T09:04:44.305Z,101883.06
2022-10-08T09:07:26.608Z,101883.94
2022-10-08T09:10:00.662Z,101878.53
2022-10-08T09:12:39.777Z,101891.66
2022-10-08T09:15:35.878Z,101893.34
2022-10-08T09:18:15.105Z,101895.97
2022-10-08T09:20:48.136Z,101894.97
2022-10-08T09:23:23.985Z,101906.34
2022-10-08T09:26:34.009Z,101910.59
2022-10-08T09:29:07.190Z,101920.38
2022-10-08T09:31:39.548Z,101921.44
2022-10-08T09:34:20.893Z,101926.47
2022-10-08T09:37:04.875Z,101930.81
2022-10-08T09:39:38.229Z,101936.31
2022-10-08T09:42:17.168Z,101934.53
2022-10-08T09:44:59.075Z,101931.25
2022-10-08T09:47:31.621Z,101934.56
2022-10-08T09:50:21.413Z,101941.41
2022-10-08T09:52:56.216Z,101946.50
2022-10-08T09:55:35.227Z,101947.81
2022-10-08T09:58:18.733Z,101956.56
2022-10-08T10:01:12.348Z,101959.78
2022-10-08T10:03:53.990Z,101957.13
2022-10-08T10:06:34.820Z,101969.97
2022-10-08T10:09:38.132Z,101977.25
2022-10-08T10:12:21.047Z,101972.94
2022-10-08T10:15:00.602Z,101970.34
2022-10-08T10:17:49.760Z,101965.16
2022-10-08T10:20:33.372Z,101960.75
2022-10-08T10:23:20.960Z,101970.50
2022-10-08T10:26:07.420Z,101962.31
2022-10-08T10:28:57.126Z,101968.16
2022-10-08T10:31:46.354Z,101971.41
2022-10-08T10:34:27.911Z,101978.94
2022-10-08T10:37:12.055Z,101989.69
2022-10-08T10:39:54.043Z,101980.09
2022-10-08T10:42:43.622Z,101978.13
2022-10-08T10:45:31.128Z,101985.81
2022-10-08T10:48:05.158Z,101992.81
2022-10-08T10:50:44.816Z,101991.91
2022-10-08T10:53:46.539Z,101984.53
2022-10-08T10:56:22.006Z,101983.69
2022-10-08T10:59:08.815Z,101983.16
2022-10-08T11:02:06.861Z,101993.31
2022-10-08T11:05:11.933Z,101990.59
2022-10-08T11:08:27.125Z,101988.44
2022-10-08T11:11:10.515Z,101991.34
2022-10-08T11:14:17.364Z,101988.53
2022-10-08T11:17:22.034Z,101997.53
2022-10-08T11:20:20.537Z,101992.16
2022-10-08T11:23:17.115Z,101990.31
2022-10-08T11:26:20.822Z,101997.38
2022-10-08T11:29:19.770Z,102002.69
2022-10-08T11:31:53.109Z,101998.50
2022-10-08T11:34:35.279Z,102011.19
2022-10-08T11:37:10.371Z,102002.00
2022-10-08T11:40:05.050Z,102007.81
2022-10-08T11:42:48.315Z,102014.31
2022-10-08T11:45:24.217Z,102015.19
2022-10-08T11:48:00.277Z,102018.63
2022-10-08T11:50:36.226Z,102016.81
2022-10-08T11:53:13.805Z,102017.44
2022-10-08T11:55:53.245Z,102020.06
2022-10-08T11:58:31.593Z,102019.75
2022-10-08T12:01:10.316Z,102012.47
2022-10-08T12:03:43.759Z,102022.88
2022-10-08T12:06:28.425Z,102018.28
2022-10-08T12:09:07.520Z,102028.53
2022-10-08T12:11:39.896Z,102011.22
2022-10-08T12:14:12.468Z,102010.19
2022-10-08T12:16:48.014Z,102001.59
2022-10-08T12:19:32.746Z,102011.91
2022-10-08T12:22:25.444Z,102017.28
2022-10-08T12:24:59.583Z,102018.22
2022-10-08T12:27:39.212Z,102011.66
2022-10-08T12:30:16.610Z,102018.94
2022-10-08T12:32:50.672Z,102023.75
2022-10-08T12:36:02.403Z,102016.66
2022-10-08T12:39:02.645Z,102024.44
2022-10-08T12:42:19.168Z,102028.94
2022-10-08T12:45:24.416Z,102032.88
2022-10-08T12:48:33.863Z,102019.50
2022-10-08T12:51:46.861Z,102023.25
2022-10-08T12:54:26.811Z,102029.09
2022-10-08T12:57:07.731Z,102034.19
2022-10-08T12:59:42.285Z,102028.09
2022-10-08T13:02:42.002Z,102029.53
2022-10-08T13:05:46.335Z,102023.50
2022-10-08T13:08:49.422Z,102032.16
2022-10-08T13:11:22.854Z,102031.13
2022-10-08T13:13:55.317Z,102034.97
2022-10-08T13:16:28.501Z,102041.75
2022-10-08T13:19:01.065Z,102047.81
2022-10-08T13:21:38.121Z,102037.31
2022-10-08T13:24:13.611Z,102040.03
2022-10-08T13:26:54.393Z,102035.66
2022-10-08T13:29:30.997Z,102038.38
2022-10-08T13:32:11.072Z,102044.75
2022-10-08T13:34:48.890Z,102050.38
2022-10-08T13:37:21.476Z,102046.88
2022-10-08T13:40:18.486Z,102052.09
2022-10-08T13:42:56.808Z,102048.03
2022-10-08T13:45:39.099Z,102066.06
2022-10-08T13:48:13.665Z,102067.00
2022-10-08T13:50:50.473Z,102065.28
2022-10-08T13:53:26.447Z,102068.78
2022-10-08T13:55:59.619Z,102061.50
2022-10-08T13:58:32.713Z,102060.53
2022-10-08T14:01:05.331Z,102061.16
2022-10-08T14:03:37.836Z,102063.72
2022-10-08T14:06:10.376Z,102067.03
2022-10-08T14:08:42.896Z,102058.97
2022-10-08T14:11:17.767Z,102063.19
2022-10-08T14:13:50.292Z,102064.88
2022-10-08T14:16:22.805Z,102075.41
2022-10-08T14:18:59.158Z,102066.44
2022-10-08T14:21:32.044Z,102073.84
2022-10-08T14:24:04.732Z,102070.38
2022-10-08T14:26:37.370Z,102066.72
2022-10-08T14:29:09.917Z,102062.06
2022-10-08T14:31:42.480Z,102066.66
2022-10-08T14:34:14.974Z,102071.69
2022-10-08T14:36:50.003Z,102066.13
2022-10-08T14:39:22.871Z,102076.00
2022-10-08T14:41:55.461Z,102077.91
2022-10-08T14:44:27.981Z,102076.31
2022-10-08T14:47:00.610Z,102076.78
2022-10-08T14:49:33.153Z,102081.09
2022-10-08T14:52:05.702Z,102082.84
2022-10-08T14:54:38.286Z,102075.31
2022-10-08T14:57:10.745Z,102086.09
2022-10-08T14:59:43.179Z,102087.94
2022-10-08T15:02:15.800Z,102087.97
2022-10-08T15:04:48.381Z,102089.94
2022-10-08T15:07:21.254Z,102083.81
2022-10-08T15:09:53.789Z,102087.38
2022-10-08T15:12:26.285Z,102080.44
2022-10-08T15:14:58.794Z,102082.22
2022-10-08T15:17:31.591Z,102084.00
2022-10-08T15:20:04.791Z,102083.06
2022-10-08T15:22:37.563Z,102087.44
2022-10-08T15:25:10.244Z,102085.72
2022-10-08T15:27:43.958Z,102091.03
2022-10-08T15:30:16.560Z,102090.09
2022-10-08T15:32:49.534Z,102092.00
2022-10-08T15:35:22.555Z,102093.00
2022-10-08T15:37:55.078Z,102104.59
2022-10-08T15:40:31.067Z,102105.50
2022-10-08T15:43:03.572Z,102108.09
2022-10-08T15:45:43.591Z,102110.72
2022-10-08T15:48:16.836Z,102110.66
2022-10-08T15:50:58.861Z,102108.78
2022-10-08T15:53:38.598Z,102112.28
2022-10-08T15:56:12.096Z,102113.16
2022-10-08T15:58:52.074Z,102117.63
2022-10-08T16:01:26.319Z,102116.72
2022-10-08T16:04:00.024Z,102117.59
2022-10-08T16:06:36.082Z,102122.06
2022-10-08T16:09:10.073Z,102126.59
2022-10-08T16:11:44.926Z,102131.91
2022-10-08T16:14:20.829Z,102127.25
2022-10-08T16:16:55.022Z,102125.56
2022-10-08T16:19:28.480Z,102124.75
2022-10-08T16:22:01.365Z,102126.53
2022-10-08T16:24:34.116Z,102136.44
2022-10-08T16:27:06.953Z,102135.63
2022-10-08T16:29:39.539Z,102140.22
2022-10-08T16:32:12.995Z,102138.47
2022-10-08T16:34:53.324Z,102146.63
2022-10-08T16:37:26.365Z,102145.84
2022-10-08T16:40:03.928Z,102148.56
2022-10-08T16:42:36.701Z,102158.38
2022-10-08T16:45:10.063Z,102159.38
2022-10-08T16:47:42.851Z,102170.00
2022-10-08T16:50:15.540Z,102177.22
2022-10-08T16:52:48.578Z,102167.50
2022-10-08T16:55:21.483Z,102173.75
2022-10-08T16:57:55.521Z,102166.72
2022-10-08T17:00:28.598Z,102177.44
2022-10-08T17:03:01.763Z,102173.09
2022-10-08T17:05:34.677Z,102195.28
2022-10-08T17:08:07.482Z,102198.03
2022-10-08T17:10:40.246Z,102195.41
2022-10-08T17:13:21.092Z,102194.59
2022-10-08T17:16:07.803Z,102193.75
2022-10-08T17:18:41.185Z,102205.25
2022-10-08T17:21:22.133Z,102201.72
2022-10-08T17:23:57.729Z,102208.81
2022-10-08T17:26:36.336Z,102215.88
2022-10-08T17:29:13.336Z,102217.63
2022-10-08T17:31:46.445Z,102220.28
2022-10-08T17:34:19.347Z,102220.28
2022-10-08T17:36:52.311Z,102222.00
2022-10-08T17:39:26.043Z,102222.84
2022-10-08T17:42:06.172Z,102228.13
2022-10-08T17:44:40.655Z,102228.09
2022-10-08T17:47:13.611Z,102237.75
2022-10-08T17:49:46.585Z,102250.09
2022-10-08T17:52:19.290Z,102247.44
2022-10-08T17:54:52.098Z,102252.72
2022-10-08T17:57:25.062Z,102258.84
2022-10-08T17:59:58.052Z,102264.09
2022-10-08T18:02:31.041Z,102262.31
2022-10-08T18:05:07.155Z,102265.84
2022-10-08T18:07:42.620Z,102263.16
2022-10-08T18:10:15.654Z,102262.28
2022-10-08T18:12:51.410Z,102267.50
2022-10-08T18:15:25.209Z,102269.28
2022-10-08T18:17:58.157Z,102276.25
2022-10-08T18:20:31.085Z,102276.22
2022-10-08T18:23:11.653Z,102282.31
2022-10-08T18:25:44.197Z,102277.88
2022-10-08T18:28:19.665Z,102276.03
2022-10-08T18:30:52.413Z,102283.88
2022-10-08T18:33:24.958Z,102289.91
2022-10-08T18:35:57.913Z,102290.69
2022-10-08T18:38:30.548Z,102285.31
2022-10-08T18:41:18.975Z,102289.66
2022-10-08T18:43:52.408Z,102296.66
2022-10-08T18:46:25.554Z,102299.25
2022-10-08T18:48:58.191Z,102308.94
2022-10-08T18:51:31.276Z,102308.91
2022-10-08T18:54:04.163Z,102309.75
2022-10-08T18:56:39.763Z,102308.00
2022-10-08T18:59:15.358Z,102308.81
2022-10-08T19:01:48.497Z,102310.56
2022-10-08T19:04:22.745Z,102307.00
2022-10-08T19:06:55.354Z,102308.78
2022-10-08T19:09:28.400Z,102314.88
2022-10-08T19:12:01.224Z,102313.94
2022-10-08T19:14:34.906Z,102317.38
2022-10-08T19:17:07.584Z,102317.28
2022-10-08T19:19:40.351Z,102317.13
2022-10-08T19:22:12.997Z,102315.31
2022-10-08T19:24:46.010Z,102318.75
2022-10-08T19:27:18.807Z,102321.31
2022-10-08T19:29:51.633Z,102330.94
2022-10-08T19:32:24.712Z,102335.25
2022-10-08T19:35:00.694Z,102333.44
2022-10-08T19:37:33.391Z,102331.59
2022-10-08T19:40:06.927Z,102337.63
2022-10-08T19:42:39.672Z,102336.66
2022-10-08T19:45:14.614Z,102335.59
2022-10-08T19:47:47.900Z,102336.38
2022-10-08T19:50:20.643Z,102337.16
2022-10-08T19:52:53.627Z,102336.97
2022-10-08T19:55:26.687Z,102341.25
2022-10-08T19:57:59.458Z,102340.22
2022-10-08T20:00:32.311Z,102346.22
2022-10-08T20:03:04.871Z,102350.56
2022-10-08T20:05:37.693Z,102348.75
2022-10-08T20:08:10.292Z,102341.63
2022-10-08T20:10:43.266Z,102347.75
2022-10-08T20:13:15.847Z,102338.88
2022-10-08T20:15:51.364Z,102353.75
2022-10-08T20:18:24.740Z,102351.03
2022-10-08T20:21:10.483Z,102343.88
2022-10-08T20:23:43.061Z,102349.97
2022-10-08T20:26:24.515Z,102344.63
2022-10-08T20:29:01.021Z,102350.69
2022-10-08T20:31:40.976Z,102356.81
2022-10-08T20:34:19.886Z,102359.38
2022-10-08T20:36:53.374Z,102357.53
2022-10-08T20:39:26.003Z,102368.88
2022-10-08T20:41:59.662Z,102364.41
2022-10-08T20:44:32.136Z,102359.09
2022-10-08T20:47:04.770Z,102366.03
2022-10-08T20:49:37.244Z,102365.13
2022-10-08T20:52:09.804Z,102360.69
2022-10-08T20:54:43.869Z,102364.16
2022-10-08T20:57:16.423Z,102354.56
2022-10-08T20:59:49.196Z,102354.50
2022-10-08T21:02:24.870Z,102358.84
2022-10-08T21:04:57.409Z,102360.53
2022-10-08T21:07:29.909Z,102365.69
2022-10-08T21:10:02.946Z,102365.59
2022-10-08T21:12:35.485Z,102361.13
2022-10-08T21:15:09.580Z,102364.59
2022-10-08T21:17:42.095Z,102357.50
2022-10-08T21:20:14.652Z,102365.34
2022-10-08T21:22:47.444Z,102365.28
2022-10-08T21:25:21.448Z,102365.19
2022-10-08T21:27:53.938Z,102371.19
2022-10-08T21:30:26.520Z,102372.91
2022-10-08T21:32:59.233Z,102362.31
2022-10-08T21:35:31.835Z,102371.00
2022-10-08T21:38:04.466Z,102368.31
2022-10-08T21:40:39.571Z,102370.91
2022-10-08T21:43:12.321Z,102372.59
2022-10-08T21:45:57.114Z,102376.84
2022-10-08T21:48:30.544Z,102380.25
2022-10-08T21:51:11.258Z,102373.13
2022-10-08T21:53:50.551Z,102387.09
2022-10-08T21:56:26.893Z,102380.00
2022-10-08T21:59:01.905Z,102370.34
2022-10-08T22:01:47.137Z,102365.06
2022-10-08T22:04:23.713Z,102376.38
2022-10-08T22:06:59.787Z,102373.72
2022-10-08T22:09:34.723Z,102374.50
2022-10-08T22:12:07.240Z,102379.72
2022-10-08T22:14:39.727Z,102370.00
2022-10-08T22:17:12.273Z,102375.25
2022-10-08T22:19:44.739Z,102378.66
2022-10-08T22:22:17.288Z,102377.75
2022-10-08T22:24:49.773Z,102368.03
2022-10-08T22:27:22.517Z,102374.91
2022-10-08T22:29:55.122Z,102375.75
2022-10-08T22:32:27.900Z,102377.41
2022-10-08T22:35:00.479Z,102378.19
2022-10-08T22:37:33.021Z,102373.78
2022-10-08T22:40:06.277Z,102372.91
2022-10-08T22:42:38.789Z,102374.63
2022-10-08T22:45:11.917Z,102372.78
2022-10-08T22:47:48.149Z,102371.81
2022-10-08T22:50:20.748Z,102358.59
2022-10-08T22:52:53.265Z,102361.16
2022-10-08T22:55:25.776Z,102369.88
2022-10-08T22:57:58.251Z,102372.47
2022-10-08T23:00:30.774Z,102367.16
2022-10-08T23:03:03.461Z,102354.84
2022-10-08T23:05:36.032Z,102360.94
2022-10-08T23:08:08.538Z,102354.78
2022-10-08T23:10:40.987Z,102361.78
2022-10-08T23:13:13.462Z,102362.53
2022-10-08T23:15:45.925Z,102360.75
2022-10-08T23:18:18.421Z,102363.31
2022-10-08T23:20:50.931Z,102358.06
2022-10-08T23:23:23.472Z,102358.97
2022-10-08T23:25:59.473Z,102351.00
2022-10-08T23:28:34.351Z,102363.22
2022-10-08T23:31:10.171Z,102350.84
2022-10-08T23:33:46.902Z,102352.50
2022-10-08T23:36:27.228Z,102349.72
2022-10-08T23:39:00.564Z,102349.72
2022-10-08T23:41:33.692Z,102347.91
2022-10-08T23:44:07.229Z,102354.84
2022-10-08T23:46:39.762Z,102360.00
2022-10-08T23:49:12.274Z,102355.50
2022-10-08T23:51:44.804Z,102357.28
2022-10-08T23:54:17.343Z,102345.03
2022-10-08T23:56:49.917Z,102352.06
2022-10-08T23:59:22.386Z,102345.88
